Time;durP1;ratioP1;P1;durP2;ratioP2;P2;SDS_P1;SDS_P2;PMS_P1;PMS_P2;Temp;Humidity;BMP_temperature;BMP_pressure;BME280_temperature;BME280_humidity;BME280_pressure;Samples;Min_cycle;Max_cycle;Signal;HPM_P1;HPM_P2
2022/04/24 00:01:39;;;;;;;124.32;68.85;;;;;;;;;;7331302;19;153614;-14
2022/04/24 00:04:10;;;;;;;115.43;66.78;;;;;;;;;;7334862;19;161596;-15
2022/04/24 00:06:42;;;;;;;116.88;68.30;;;;;;;;;;7331571;19;162429;-15
2022/04/24 00:09:16;;;;;;;114.15;63.65;;;;;;;;;;7330552;19;154370;-15
2022/04/24 00:11:48;;;;;;;104.43;61.53;;;;;;;;;;7331200;19;153619;-16
2022/04/24 00:14:20;;;;;;;116.07;63.72;;;;;;;;;;7328169;19;161877;-14
2022/04/24 00:16:52;;;;;;;112.95;63.20;;;;;;;;;;7331227;19;162561;-16
2022/04/24 00:19:23;;;;;;;99.22;60.90;;;;;;;;;;7330486;19;154374;-15
2022/04/24 00:21:55;;;;;;;107.93;60.13;;;;;;;;;;7329192;19;153684;-15
2022/04/24 00:24:29;;;;;;;104.50;59.83;;;;;;;;;;7331270;19;161837;-13
2022/04/24 00:27:00;;;;;;;98.50;56.72;;;;;;;;;;7331215;19;162474;-15
2022/04/24 00:29:32;;;;;;;101.95;56.92;;;;;;;;;;7330022;19;154373;-15
2022/04/24 00:32:03;;;;;;;101.88;56.28;;;;;;;;;;7331177;19;153690;-14
2022/04/24 00:34:35;;;;;;;105.35;56.80;;;;;;;;;;7331104;19;161824;-15
2022/04/24 00:37:07;;;;;;;97.75;56.13;;;;;;;;;;7329640;19;162410;-14
2022/04/24 00:39:41;;;;;;;98.63;54.33;;;;;;;;;;7331315;19;153994;-14
2022/04/24 00:42:12;;;;;;;97.95;54.85;;;;;;;;;;7328259;19;153925;-14
2022/04/24 00:44:43;;;;;;;97.40;56.03;;;;;;;;;;7330671;19;161868;-15
2022/04/24 00:47:29;;;;;;;92.88;51.83;;;;;;;;;;7328846;19;162416;-14
2022/04/24 00:50:00;;;;;;;91.97;54.10;;;;;;;;;;7330827;19;154031;-15
2022/04/24 00:52:32;;;;;;;99.15;55.33;;;;;;;;;;7330753;19;153844;-15
2022/04/24 00:55:06;;;;;;;98.45;53.38;;;;;;;;;;7330544;19;161963;-15
2022/04/24 00:57:38;;;;;;;94.47;53.15;;;;;;;;;;7330609;19;162390;-16
2022/04/24 01:00:11;;;;;;;92.75;54.15;;;;;;;;;;7330521;19;154030;-14
2022/04/24 01:02:42;;;;;;;93.45;51.38;;;;;;;;;;7329876;19;153667;-14
2022/04/24 01:05:17;;;;;;;91.22;51.75;;;;;;;;;;7330231;19;161901;-14
2022/04/24 01:07:50;;;;;;;84.80;50.15;;;;;;;;;;7332149;19;162499;-16
2022/04/24 01:10:24;;;;;;;93.70;54.38;;;;;;;;;;7330314;19;154105;-16
2022/04/24 01:12:55;;;;;;;86.75;52.03;;;;;;;;;;7330108;19;153650;-17
2022/04/24 01:15:26;;;;;;;87.35;51.05;;;;;;;;;;7329801;19;161790;-16
2022/04/24 01:17:59;;;;;;;95.47;51.10;;;;;;;;;;7329859;19;162661;-16
2022/04/24 01:20:34;;;;;;;88.63;50.35;;;;;;;;;;7329867;19;154067;-15
2022/04/24 01:23:05;;;;;;;92.20;51.15;;;;;;;;;;7328907;19;153639;-15
2022/04/24 01:25:37;;;;;;;86.25;49.72;;;;;;;;;;7329644;19;162027;-15
2022/04/24 01:28:10;;;;;;;87.20;50.23;;;;;;;;;;7329480;19;162440;-16
2022/04/24 01:30:41;;;;;;;;;;;;;;;;;;7330437;19;154067;-17
2022/04/24 01:33:12;;;;;;;83.22;47.80;;;;;;;;;;7329617;19;153505;-14
2022/04/24 01:35:46;;;;;;;85.22;47.72;;;;;;;;;;7329167;19;161791;-17
2022/04/24 01:38:17;;;;;;;84.45;48.88;;;;;;;;;;7329086;19;162731;-16
2022/04/24 01:40:48;;;;;;;80.75;45.53;;;;;;;;;;7329255;19;154153;-16
2022/04/24 01:43:20;;;;;;;84.93;46.72;;;;;;;;;;7329323;19;153843;-15
2022/04/24 01:45:51;;;;;;;87.30;49.28;;;;;;;;;;7328918;19;161807;-16
2022/04/24 01:48:22;;;;;;;84.00;48.90;;;;;;;;;;7326224;19;162364;-17
2022/04/24 01:50:57;;;;;;;81.65;48.42;;;;;;;;;;7329226;19;154245;-15
2022/04/24 01:53:29;;;;;;;77.40;46.13;;;;;;;;;;7329061;19;153664;-15
2022/04/24 01:56:01;;;;;;;80.50;47.60;;;;;;;;;;7328547;19;161840;-16
2022/04/24 01:58:32;;;;;;;80.80;44.17;;;;;;;;;;7328446;19;162366;-15
2022/04/24 02:01:04;;;;;;;78.82;46.85;;;;;;;;;;7328359;19;154161;-16
2022/04/24 02:03:36;;;;;;;76.85;45.63;;;;;;;;;;7329210;19;154001;-17
2022/04/24 02:06:11;;;;;;;79.10;45.60;;;;;;;;;;7328698;19;161833;-16
2022/04/24 02:08:42;;;;;;;82.40;47.90;;;;;;;;;;7328265;19;162495;-16
2022/04/24 02:11:13;;;;;;;73.18;42.80;;;;;;;;;;7327242;19;154033;-16
2022/04/24 02:13:45;;;;;;;74.00;43.05;;;;;;;;;;7328413;19;153586;-14
2022/04/24 02:16:16;;;;;;;75.90;44.67;;;;;;;;;;7332026;19;161977;-17
2022/04/24 02:18:47;;;;;;;75.65;46.35;;;;;;;;;;7334795;19;162442;-16
2022/04/24 02:21:21;;;;;;;73.93;43.72;;;;;;;;;;7335100;19;154362;-16
2022/04/24 02:23:53;;;;;;;74.75;45.00;;;;;;;;;;7335236;19;153558;-16
2022/04/24 02:26:24;;;;;;;70.13;41.25;;;;;;;;;;7334735;19;161729;-15
2022/04/24 02:28:55;;;;;;;71.07;42.47;;;;;;;;;;7334740;19;162452;-16
2022/04/24 02:31:26;;;;;;;73.65;42.72;;;;;;;;;;7334943;19;154120;-17
2022/04/24 02:33:58;;;;;;;67.07;41.63;;;;;;;;;;7333763;19;154953;-16
2022/04/24 02:36:31;;;;;;;72.72;42.40;;;;;;;;;;7334580;19;161872;-15
2022/04/24 02:39:02;;;;;;;69.75;41.25;;;;;;;;;;7334369;19;162527;-15
2022/04/24 02:41:34;;;;;;;71.78;43.13;;;;;;;;;;7334182;19;154099;-15
2022/04/24 02:44:05;;;;;;;67.65;41.10;;;;;;;;;;7334453;19;153520;-16
2022/04/24 02:46:37;;;;;;;70.95;42.50;;;;;;;;;;7334355;19;162053;-16
2022/04/24 02:49:08;;;;;;;70.07;41.00;;;;;;;;;;7332228;19;162518;-17
2022/04/24 02:51:42;;;;;;;68.13;40.28;;;;;;;;;;7334362;19;154191;-15
2022/04/24 02:54:13;;;;;;;69.72;41.38;;;;;;;;;;7334314;19;153724;-17
2022/04/24 02:56:44;;;;;;;67.55;41.05;;;;;;;;;;7333885;19;161717;-15
2022/04/24 02:59:16;;;;;;;67.30;40.60;;;;;;;;;;7333843;19;162371;-15
2022/04/24 03:01:48;;;;;;;68.20;41.35;;;;;;;;;;7333923;19;154199;-16
2022/04/24 03:04:19;;;;;;;72.10;42.00;;;;;;;;;;7334086;19;153611;-16
2022/04/24 03:06:53;;;;;;;66.90;39.58;;;;;;;;;;7333510;19;161944;-16
2022/04/24 03:09:24;;;;;;;63.13;39.95;;;;;;;;;;7333427;19;162661;-13
2022/04/24 03:11:55;;;;;;;65.15;38.65;;;;;;;;;;7336521;19;154040;-13
2022/04/24 03:14:27;;;;;;;68.57;37.97;;;;;;;;;;7333845;19;153531;-13
2022/04/24 03:16:58;;;;;;;62.22;36.28;;;;;;;;;;7333407;19;161894;-14
2022/04/24 03:19:29;;;;;;;63.50;36.42;;;;;;;;;;7333139;19;162403;-13
2022/04/24 03:22:03;;;;;;;62.47;37.92;;;;;;;;;;7333345;19;154376;-14
2022/04/24 03:24:35;;;;;;;63.58;38.25;;;;;;;;;;7333440;19;153672;-13
2022/04/24 03:27:07;;;;;;;61.90;37.28;;;;;;;;;;7332924;19;162072;-14
2022/04/24 03:29:38;;;;;;;69.37;38.20;;;;;;;;;;7332998;19;162395;-12
2022/04/24 03:32:11;;;;;;;65.22;38.58;;;;;;;;;;7332115;19;154052;-15
2022/04/24 03:34:42;;;;;;;65.65;36.22;;;;;;;;;;7332994;19;153727;-15
2022/04/24 03:37:16;;;;;;;64.55;37.40;;;;;;;;;;7332611;19;161995;-15
2022/04/24 03:39:48;;;;;;;60.40;36.33;;;;;;;;;;7332570;19;162530;-13
2022/04/24 03:42:19;;;;;;;63.88;36.60;;;;;;;;;;7332378;19;154380;-14
2022/04/24 03:44:50;;;;;;;63.22;36.28;;;;;;;;;;7333014;19;153567;-13
2022/04/24 03:47:22;;;;;;;57.85;35.83;;;;;;;;;;7332340;19;162098;-13
2022/04/24 03:49:53;;;;;;;64.43;36.25;;;;;;;;;;7332382;19;162402;-13
2022/04/24 03:52:27;;;;;;;60.17;35.33;;;;;;;;;;7332744;19;154391;-14
2022/04/24 03:54:58;;;;;;;59.50;35.20;;;;;;;;;;7332150;19;154893;-15
2022/04/24 03:57:31;;;;;;;56.55;33.88;;;;;;;;;;7332399;19;161886;-15
2022/04/24 04:00:03;;;;;;;58.17;34.15;;;;;;;;;;7333116;19;162424;-15
2022/04/24 04:02:46;;;;;;;55.08;33.88;;;;;;;;;;7331374;19;154123;-15
2022/04/24 04:05:20;;;;;;;58.28;34.30;;;;;;;;;;7332437;19;153590;-16
2022/04/24 04:07:55;;;;;;;56.45;33.33;;;;;;;;;;7335149;19;162072;-16
2022/04/24 04:10:26;;;;;;;53.33;32.50;;;;;;;;;;7334208;19;162520;-16
2022/04/24 04:12:58;;;;;;;49.42;31.98;;;;;;;;;;7335122;19;153722;-17
2022/04/24 04:15:30;;;;;;;53.75;32.65;;;;;;;;;;7335440;19;153898;-15
2022/04/24 04:18:02;;;;;;;56.33;32.07;;;;;;;;;;7335084;19;161815;-16
2022/04/24 04:20:33;;;;;;;53.40;32.17;;;;;;;;;;7334331;19;162537;-14
2022/04/24 04:23:07;;;;;;;50.33;31.52;;;;;;;;;;7334876;19;154185;-16
2022/04/24 04:25:39;;;;;;;57.92;33.70;;;;;;;;;;7335180;19;153789;-15
2022/04/24 04:28:11;;;;;;;51.45;32.30;;;;;;;;;;7334186;19;161574;-14
2022/04/24 04:30:43;;;;;;;50.80;32.43;;;;;;;;;;7332563;19;162775;-14
2022/04/24 04:33:15;;;;;;;53.10;31.83;;;;;;;;;;7335360;19;154005;-16
2022/04/24 04:35:46;;;;;;;51.10;30.52;;;;;;;;;;7334646;19;153603;-14
2022/04/24 04:38:20;;;;;;;50.03;30.17;;;;;;;;;;7333128;19;161883;-14
2022/04/24 04:40:51;;;;;;;55.30;31.38;;;;;;;;;;7334460;19;162380;-14
2022/04/24 04:43:22;;;;;;;52.45;32.58;;;;;;;;;;7333886;19;154095;-15
2022/04/24 04:45:53;;;;;;;50.08;29.60;;;;;;;;;;7334398;19;153903;-15
2022/04/24 04:48:25;;;;;;;51.40;31.63;;;;;;;;;;7333419;19;162113;-16
2022/04/24 04:50:56;;;;;;;48.00;29.63;;;;;;;;;;7334060;19;162493;-15
2022/04/24 04:53:30;;;;;;;45.55;29.20;;;;;;;;;;7334008;19;154309;-16
2022/04/24 04:56:01;;;;;;;46.55;28.60;;;;;;;;;;7334530;19;153729;-15
2022/04/24 04:58:33;;;;;;;44.15;29.50;;;;;;;;;;7333465;19;161765;-16
2022/04/24 05:01:04;;;;;;;46.78;29.00;;;;;;;;;;7333381;19;162504;-15
2022/04/24 05:03:35;;;;;;;46.58;29.55;;;;;;;;;;7333420;19;154086;-16
2022/04/24 05:06:07;;;;;;;46.88;28.60;;;;;;;;;;7333689;19;154432;-15
2022/04/24 05:08:41;;;;;;;47.15;29.05;;;;;;;;;;7333456;19;161850;-15
2022/04/24 05:11:12;;;;;;;47.38;29.55;;;;;;;;;;7333773;19;162404;-16
2022/04/24 05:13:43;;;;;;;43.05;27.38;;;;;;;;;;7332474;19;154120;-16
2022/04/24 05:16:15;;;;;;;46.58;28.48;;;;;;;;;;7332528;19;153755;-14
2022/04/24 05:18:46;;;;;;;45.67;28.08;;;;;;;;;;7331904;19;162271;-15
2022/04/24 05:21:17;;;;;;;44.15;27.77;;;;;;;;;;7333236;19;162317;-17
2022/04/24 05:23:52;;;;;;;44.58;27.92;;;;;;;;;;7332301;19;154276;-16
2022/04/24 05:26:23;;;;;;;42.05;26.50;;;;;;;;;;7333678;19;153782;-15
2022/04/24 05:28:55;;;;;;;44.53;27.80;;;;;;;;;;7332521;19;162302;-16
2022/04/24 05:31:26;;;;;;;41.60;27.02;;;;;;;;;;7332680;19;162371;-14
2022/04/24 05:33:57;;;;;;;41.45;25.55;;;;;;;;;;7333493;19;154493;-14
2022/04/24 05:36:29;;;;;;;39.67;25.75;;;;;;;;;;7332498;19;153603;-16
2022/04/24 05:39:03;;;;;;;42.55;27.27;;;;;;;;;;7331542;19;162108;-16
2022/04/24 05:41:34;;;;;;;42.38;26.10;;;;;;;;;;7332828;19;162329;-14
2022/04/24 05:44:05;;;;;;;43.13;27.15;;;;;;;;;;7332575;19;154073;-14
2022/04/24 05:46:37;;;;;;;38.38;23.88;;;;;;;;;;7332691;19;153841;-16
2022/04/24 05:49:08;;;;;;;40.38;25.02;;;;;;;;;;7330172;19;162002;-16
2022/04/24 05:51:41;;;;;;;39.05;25.98;;;;;;;;;;7337295;19;162436;-15
2022/04/24 05:54:15;;;;;;;39.28;23.55;;;;;;;;;;7337288;19;153989;-16
2022/04/24 05:56:47;;;;;;;42.58;25.48;;;;;;;;;;7339244;19;153588;-14
2022/04/24 05:59:18;;;;;;;40.70;25.70;;;;;;;;;;7337982;19;161831;-16
2022/04/24 06:01:49;;;;;;;40.88;24.60;;;;;;;;;;7337161;19;162158;-16
2022/04/24 06:04:21;;;;;;;36.20;24.08;;;;;;;;;;7338664;19;154246;-15
2022/04/24 06:06:52;;;;;;;41.78;24.23;;;;;;;;;;7339031;19;153851;-15
2022/04/24 06:09:26;;;;;;;39.25;24.33;;;;;;;;;;7338894;19;161822;-15
2022/04/24 06:12:01;;;;;;;41.20;24.98;;;;;;;;;;7337176;19;162385;-14
2022/04/24 06:14:32;;;;;;;38.58;23.52;;;;;;;;;;7338067;19;154975;-14
2022/04/24 06:17:03;;;;;;;39.38;23.98;;;;;;;;;;7339353;19;153853;-15
2022/04/24 06:19:34;;;;;;;34.85;24.17;;;;;;;;;;7338226;19;161857;-16
2022/04/24 06:22:06;;;;;;;36.88;23.55;;;;;;;;;;7338414;19;162401;-16
2022/04/24 06:24:40;;;;;;;40.60;25.08;;;;;;;;;;7338129;19;154310;-16
2022/04/24 06:27:12;;;;;;;32.22;22.58;;;;;;;;;;7338302;19;153773;-15
2022/04/24 06:29:43;;;;;;;34.33;21.52;;;;;;;;;;7338195;19;162015;-16
2022/04/24 06:32:14;;;;;;;34.38;22.65;;;;;;;;;;7338302;19;162482;-15
2022/04/24 06:34:45;;;;;;;37.47;22.33;;;;;;;;;;7338940;19;154081;-15
2022/04/24 06:37:17;;;;;;;37.40;24.05;;;;;;;;;;7336994;19;153676;-13
2022/04/24 06:39:50;;;;;;;36.13;23.60;;;;;;;;;;7337544;19;161915;-16
2022/04/24 06:42:22;;;;;;;34.60;21.40;;;;;;;;;;7337784;19;162848;-16
2022/04/24 06:44:53;;;;;;;35.38;22.60;;;;;;;;;;7337007;19;154014;-16
2022/04/24 06:47:27;;;;;;;36.65;23.20;;;;;;;;;;7338029;19;153814;-16
2022/04/24 06:49:58;;;;;;;34.40;21.55;;;;;;;;;;7337604;19;162071;-15
2022/04/24 06:52:29;;;;;;;33.03;21.75;;;;;;;;;;7337134;19;162358;-15
2022/04/24 06:55:03;;;;;;;35.88;22.35;;;;;;;;;;7338403;19;153933;-15
2022/04/24 06:57:35;;;;;;;34.22;21.38;;;;;;;;;;7337480;19;153833;-14
2022/04/24 07:00:09;;;;;;;34.20;22.23;;;;;;;;;;7336585;19;162027;-14
2022/04/24 07:02:42;;;;;;;35.17;21.90;;;;;;;;;;7336374;19;162289;-13
2022/04/24 07:05:13;;;;;;;31.25;19.52;;;;;;;;;;7336596;19;154025;-13
2022/04/24 07:07:45;;;;;;;31.23;20.55;;;;;;;;;;7337793;19;153649;-15
2022/04/24 07:10:19;;;;;;;34.15;21.35;;;;;;;;;;7337120;19;161828;-15
2022/04/24 07:12:57;;;;;;;30.33;21.05;;;;;;;;;;7336762;19;162623;-16
2022/04/24 07:15:32;;;;;;;29.10;20.83;;;;;;;;;;7335727;19;154038;-15
2022/04/24 07:18:05;;;;;;;31.17;20.60;;;;;;;;;;7337630;19;153937;-15
2022/04/24 07:20:36;;;;;;;29.55;18.95;;;;;;;;;;7335793;19;161780;-16
2022/04/24 07:23:07;;;;;;;34.15;20.60;;;;;;;;;;7335845;19;162442;-15
2022/04/24 07:25:43;;;;;;;33.15;20.60;;;;;;;;;;7335827;19;154145;-14
2022/04/24 07:28:16;;;;;;;32.88;21.00;;;;;;;;;;7336309;19;153780;-13
2022/04/24 07:30:48;;;;;;;29.40;19.52;;;;;;;;;;7336343;19;161632;-15
2022/04/24 07:33:19;;;;;;;30.63;19.63;;;;;;;;;;7336169;19;162406;-14
2022/04/24 07:35:50;;;;;;;32.33;19.30;;;;;;;;;;7336112;19;153905;-15
2022/04/24 07:38:22;;;;;;;28.33;19.15;;;;;;;;;;7336880;19;153647;-16
2022/04/24 07:40:55;;;;;;;31.67;19.63;;;;;;;;;;7334697;19;161906;-15
2022/04/24 07:43:27;;;;;;;29.77;19.70;;;;;;;;;;7335428;19;162539;-13
2022/04/24 07:45:58;;;;;;;25.08;16.00;;;;;;;;;;7335117;19;153771;-15
2022/04/24 07:48:29;;;;;;;18.83;12.70;;;;;;;;;;7332850;19;153953;-14
2022/04/24 07:51:01;;;;;;;17.58;10.80;;;;;;;;;;7333625;19;161905;-14
2022/04/24 07:53:32;;;;;;;14.65;9.65;;;;;;;;;;7335693;19;162442;-16
2022/04/24 07:56:07;;;;;;;12.15;8.23;;;;;;;;;;7335658;19;153969;-17
2022/04/24 07:58:40;;;;;;;11.63;6.28;;;;;;;;;;7333989;19;153596;-16
2022/04/24 08:01:16;;;;;;;10.43;6.32;;;;;;;;;;7334326;19;161574;-16
2022/04/24 08:03:47;;;;;;;8.20;5.30;;;;;;;;;;7334959;19;162410;-16
2022/04/24 08:06:19;;;;;;;6.40;4.22;;;;;;;;;;7334606;19;154236;-15
2022/04/24 08:08:50;;;;;;;6.45;4.25;;;;;;;;;;7334986;19;153553;-17
2022/04/24 08:11:24;;;;;;;5.28;3.33;;;;;;;;;;7335282;19;161821;-15
2022/04/24 08:13:55;;;;;;;5.82;3.22;;;;;;;;;;7333008;19;162460;-15
2022/04/24 08:16:27;;;;;;;4.22;3.20;;;;;;;;;;7334248;19;154111;-16
2022/04/24 08:19:00;;;;;;;3.60;2.75;;;;;;;;;;7335670;19;153798;-14
2022/04/24 08:21:32;;;;;;;2.90;2.63;;;;;;;;;;7334521;19;162110;-15
2022/04/24 08:24:03;;;;;;;3.58;2.65;;;;;;;;;;7334268;19;162409;-15
2022/04/24 08:26:37;;;;;;;3.13;2.30;;;;;;;;;;7333935;19;154195;-14
2022/04/24 08:29:08;;;;;;;2.72;2.42;;;;;;;;;;7334055;19;153513;-15
2022/04/24 08:31:39;;;;;;;2.85;2.10;;;;;;;;;;7334447;19;161986;-15
2022/04/24 08:34:11;;;;;;;3.28;1.80;;;;;;;;;;7331208;19;162447;-15
2022/04/24 08:36:42;;;;;;;2.40;1.75;;;;;;;;;;7331616;19;154249;-13
2022/04/24 08:39:14;;;;;;;2.22;1.98;;;;;;;;;;7331179;19;153722;-16
2022/04/24 08:41:49;;;;;;;40.70;13.30;;;;;;;;;;7330730;19;162011;-16
2022/04/24 08:44:20;;;;;;;16.20;4.63;;;;;;;;;;7330582;19;162424;-16
2022/04/24 08:46:51;;;;;;;15.13;6.97;;;;;;;;;;7329560;19;154074;-17
2022/04/24 08:49:24;;;;;;;20.48;8.68;;;;;;;;;;7328316;19;153632;-15
2022/04/24 08:51:56;;;;;;;16.98;8.60;;;;;;;;;;7330675;19;161943;-15
2022/04/24 08:54:29;;;;;;;26.93;7.60;;;;;;;;;;7333484;19;162569;-16
2022/04/24 08:57:03;;;;;;;15.32;6.93;;;;;;;;;;7333050;19;154644;-14
2022/04/24 08:59:34;;;;;;;20.00;6.43;;;;;;;;;;7331817;19;153866;-14
2022/04/24 09:02:06;;;;;;;13.25;6.70;;;;;;;;;;7332657;19;162124;-17
2022/04/24 09:04:38;;;;;;;18.98;7.15;;;;;;;;;;7334654;19;162549;-15
2022/04/24 09:07:17;;;;;;;14.00;7.07;;;;;;;;;;7331738;19;154089;-14
2022/04/24 09:09:49;;;;;;;16.75;6.70;;;;;;;;;;7332280;19;153758;-14
2022/04/24 09:12:29;;;;;;;13.70;6.25;;;;;;;;;;7331231;19;133648;-17
2022/04/24 09:15:01;;;;;;;15.18;6.78;;;;;;;;;;7331347;19;162535;-16
2022/04/24 09:17:34;;;;;;;13.07;6.68;;;;;;;;;;7331548;19;153874;-18
2022/04/24 09:20:19;;;;;;;12.30;6.18;;;;;;;;;;7332920;19;153703;-17
2022/04/24 09:22:50;;;;;;;14.68;6.40;;;;;;;;;;7330858;19;161846;-18
2022/04/24 09:25:22;;;;;;;11.07;5.65;;;;;;;;;;7331269;19;162732;-15
2022/04/24 09:27:58;;;;;;;14.13;5.57;;;;;;;;;;7330904;19;154025;-17
2022/04/24 09:30:35;;;;;;;10.82;5.65;;;;;;;;;;7333892;19;153497;-16
2022/04/24 09:33:10;;;;;;;13.85;6.28;;;;;;;;;;7331018;19;161847;-14
2022/04/24 09:35:42;;;;;;;13.10;5.95;;;;;;;;;;7331799;19;162441;-18
2022/04/24 09:38:17;;;;;;;11.65;5.85;;;;;;;;;;7331962;19;153993;-17
2022/04/24 09:40:49;;;;;;;12.80;5.80;;;;;;;;;;7330266;19;153319;-15
2022/04/24 09:43:24;;;;;;;14.32;5.88;;;;;;;;;;7329925;19;162092;-17
2022/04/24 09:45:56;;;;;;;9.75;5.43;;;;;;;;;;7332537;19;162640;-16
2022/04/24 09:48:28;;;;;;;12.00;5.75;;;;;;;;;;7330520;19;154072;-18
2022/04/24 09:51:01;;;;;;;11.18;6.18;;;;;;;;;;7330483;19;153822;-14
2022/04/24 09:53:37;;;;;;;9.88;4.95;;;;;;;;;;7330018;19;162030;-16
2022/04/24 09:56:10;;;;;;;10.63;5.35;;;;;;;;;;7332137;19;162599;-14
2022/04/24 09:58:44;;;;;;;11.40;5.83;;;;;;;;;;7330049;19;153740;-17
2022/04/24 10:01:16;;;;;;;9.15;5.07;;;;;;;;;;7330581;19;153464;-16
2022/04/24 10:03:48;;;;;;;14.20;5.43;;;;;;;;;;7331635;19;162013;-19
2022/04/24 10:06:20;;;;;;;10.63;5.47;;;;;;;;;;7331142;19;162674;-16
2022/04/24 10:08:52;;;;;;;12.77;5.67;;;;;;;;;;7329405;19;154071;-14
2022/04/24 10:11:24;;;;;;;10.43;5.73;;;;;;;;;;7331541;19;153739;-16
2022/04/24 10:14:05;;;;;;;8.55;5.20;;;;;;;;;;7330906;19;161785;-13
2022/04/24 10:17:06;;;;;;;7.90;4.88;;;;;;;;;;7330707;19;162507;-16
2022/04/24 10:19:48;;;;;;;10.15;4.85;;;;;;;;;;7330965;19;154034;-17
2022/04/24 10:22:32;;;;;;;11.77;5.22;;;;;;;;;;7329575;19;153691;-17
2022/04/24 10:25:04;;;;;;;10.65;5.70;;;;;;;;;;7330110;19;161980;-17
2022/04/24 10:27:41;;;;;;;7.82;4.75;;;;;;;;;;7327503;19;162314;-17
2022/04/24 10:30:23;;;;;;;7.00;3.45;;;;;;;;;;7330675;19;154064;-14
2022/04/24 10:33:17;;;;;;;9.15;3.80;;;;;;;;;;7328865;19;153531;-15
2022/04/24 10:35:52;;;;;;;4.30;3.35;;;;;;;;;;7329667;19;161851;-14
2022/04/24 10:38:51;;;;;;;4.18;3.65;;;;;;;;;;7336884;19;162615;-17
2022/04/24 10:41:32;;;;;;;6.75;4.40;;;;;;;;;;7336516;19;154145;-15
2022/04/24 10:44:12;;;;;;;7.03;4.32;;;;;;;;;;7337945;19;153683;-14
2022/04/24 10:46:51;;;;;;;8.25;4.10;;;;;;;;;;7334822;19;161550;-16
2022/04/24 10:49:22;;;;;;;6.72;4.10;;;;;;;;;;7331403;19;162643;-16
2022/04/24 10:52:01;;;;;;;5.20;3.50;;;;;;;;;;7337437;19;154144;-14
2022/04/24 10:54:35;;;;;;;7.32;3.50;;;;;;;;;;7337712;19;153571;-16
2022/04/24 10:57:19;;;;;;;6.18;3.72;;;;;;;;;;7337096;19;161759;-17
2022/04/24 10:59:52;;;;;;;5.15;3.35;;;;;;;;;;7336755;19;162372;-15
2022/04/24 11:02:32;;;;;;;5.35;3.33;;;;;;;;;;7336561;19;153893;-18
2022/04/24 11:05:05;;;;;;;4.50;3.28;;;;;;;;;;7337474;19;153533;-17
2022/04/24 11:07:37;;;;;;;3.88;2.85;;;;;;;;;;7336344;19;161769;-14
2022/04/24 11:10:11;;;;;;;4.57;3.63;;;;;;;;;;7334945;19;162553;-17
2022/04/24 11:12:43;;;;;;;6.78;2.95;;;;;;;;;;7336067;19;154336;-15
2022/04/24 11:15:16;;;;;;;3.63;2.63;;;;;;;;;;7336267;19;153750;-16
2022/04/24 11:17:51;;;;;;;4.38;3.33;;;;;;;;;;7336256;19;161577;-14
2022/04/24 11:20:27;;;;;;;6.50;3.45;;;;;;;;;;7336268;19;162554;-13
2022/04/24 11:22:58;;;;;;;4.50;2.80;;;;;;;;;;7334483;19;154286;-15
2022/04/24 11:25:29;;;;;;;3.30;2.85;;;;;;;;;;7335687;19;153618;-17
2022/04/24 11:28:01;;;;;;;3.38;2.78;;;;;;;;;;7334625;19;162006;-13
2022/04/24 11:30:34;;;;;;;4.68;3.00;;;;;;;;;;7335721;19;162392;-16
2022/04/24 11:33:09;;;;;;;5.28;2.92;;;;;;;;;;7336670;19;154043;-15
2022/04/24 11:35:42;;;;;;;4.63;3.13;;;;;;;;;;7337305;19;153615;-16
2022/04/24 11:38:15;;;;;;;3.90;2.40;;;;;;;;;;7335257;19;162092;-18
2022/04/24 11:40:50;;;;;;;4.30;2.58;;;;;;;;;;7334701;19;162434;-16
2022/04/24 11:43:22;;;;;;;5.57;2.85;;;;;;;;;;7334961;19;154669;-14
2022/04/24 11:51:26;;;;;;;4.18;2.60;;;;;;;;;;7334478;19;162404;-14
2022/04/24 11:54:07;;;;;;;3.70;2.47;;;;;;;;;;7333837;19;154358;-17
2022/04/24 11:56:39;;;;;;;4.60;2.42;;;;;;;;;;7330938;19;153503;-17
2022/04/24 11:59:15;;;;;;;3.28;2.22;;;;;;;;;;7334287;19;161794;-17
2022/04/24 12:01:48;;;;;;;3.60;2.50;;;;;;;;;;7333320;19;162441;-14
2022/04/24 12:04:23;;;;;;;6.75;2.58;;;;;;;;;;7334748;19;154127;-18
2022/04/24 12:07:03;;;;;;;2.88;2.20;;;;;;;;;;7332742;19;153962;-14
2022/04/24 12:09:35;;;;;;;3.05;2.10;;;;;;;;;;7330561;19;162596;-16
2022/04/24 12:12:08;;;;;;;5.50;2.50;;;;;;;;;;7333187;19;162464;-14
2022/04/24 12:14:40;;;;;;;3.28;2.47;;;;;;;;;;7332652;19;154092;-15
2022/04/24 12:17:13;;;;;;;3.22;2.45;;;;;;;;;;7333880;19;153490;-15
2022/04/24 12:19:53;;;;;;;3.70;2.50;;;;;;;;;;7334388;19;161846;-16
2022/04/24 12:22:32;;;;;;;4.80;2.47;;;;;;;;;;7335387;19;162394;-20
2022/04/24 12:25:11;;;;;;;3.65;2.20;;;;;;;;;;7333208;19;154091;-15
2022/04/24 12:27:53;;;;;;;2.97;2.22;;;;;;;;;;7334579;19;153938;-15
2022/04/24 12:30:26;;;;;;;3.60;2.53;;;;;;;;;;7332741;19;161833;-16
2022/04/24 12:33:07;;;;;;;4.35;2.13;;;;;;;;;;7332498;19;162687;-14
2022/04/24 12:35:41;;;;;;;3.17;2.20;;;;;;;;;;7334021;19;154040;-15
2022/04/24 12:38:16;;;;;;;4.25;2.28;;;;;;;;;;7334970;19;153949;-17
2022/04/24 12:40:57;;;;;;;4.18;2.30;;;;;;;;;;7331257;19;161640;-17
2022/04/24 12:43:30;;;;;;;3.65;2.05;;;;;;;;;;7333053;19;162549;-17
2022/04/24 12:46:01;;;;;;;;;;;;;;;;;;7330398;19;154056;-16
2022/04/24 12:48:33;;;;;;;3.38;2.05;;;;;;;;;;7334117;19;153357;-15
2022/04/24 12:51:06;;;;;;;3.05;2.08;;;;;;;;;;7332070;19;162108;-15
2022/04/24 12:53:38;;;;;;;5.88;2.50;;;;;;;;;;7333298;19;163088;-14
2022/04/24 12:56:09;;;;;;;3.17;2.03;;;;;;;;;;7334789;19;154251;-15
2022/04/24 12:58:42;;;;;;;7.78;2.55;;;;;;;;;;7330172;19;153535;-16
2022/04/24 13:01:14;;;;;;;3.60;1.90;;;;;;;;;;7332289;19;161996;-18
2022/04/24 13:03:47;;;;;;;4.43;2.28;;;;;;;;;;7333147;19;162160;-16
2022/04/24 13:06:29;;;;;;;2.60;2.15;;;;;;;;;;7334351;19;154045;-14
2022/04/24 13:09:00;;;;;;;3.45;2.28;;;;;;;;;;7330924;19;153560;-14
2022/04/24 13:11:31;;;;;;;2.58;1.98;;;;;;;;;;7332402;19;162071;-17
2022/04/24 13:14:03;;;;;;;4.07;2.10;;;;;;;;;;7333182;19;162546;-15
2022/04/24 13:19:19;;;;;;;3.28;2.17;;;;;;;;;;7331704;19;153432;-17
2022/04/24 13:21:54;;;;;;;2.25;1.80;;;;;;;;;;7332593;19;161918;-18
2022/04/24 13:24:26;;;;;;;3.35;2.10;;;;;;;;;;7333406;19;162409;-16
2022/04/24 13:26:57;;;;;;;2.42;1.92;;;;;;;;;;7331437;19;154155;-18
2022/04/24 13:29:29;;;;;;;4.00;1.95;;;;;;;;;;7331313;19;153938;-17
2022/04/24 13:32:01;;;;;;;4.07;2.00;;;;;;;;;;7333203;19;161857;-19
2022/04/24 13:34:32;;;;;;;4.82;2.17;;;;;;;;;;7333262;19;162832;-14
2022/04/24 13:39:50;;;;;;;3.95;2.10;;;;;;;;;;7332372;19;153491;-14
2022/04/24 13:42:23;;;;;;;3.38;1.80;;;;;;;;;;7331620;19;161839;-14
2022/04/24 13:44:54;;;;;;;3.35;1.92;;;;;;;;;;7330083;19;162711;-14
2022/04/24 13:47:26;;;;;;;3.17;2.00;;;;;;;;;;7331438;19;154036;-22
2022/04/24 13:49:57;;;;;;;1.83;1.60;;;;;;;;;;7331389;19;153961;-17
2022/04/24 13:52:31;;;;;;;2.20;1.75;;;;;;;;;;7332739;19;161738;-17
2022/04/24 13:55:03;;;;;;;2.47;1.90;;;;;;;;;;7330133;19;162413;-14
2022/04/24 13:57:34;;;;;;;2.08;1.73;;;;;;;;;;7331410;19;154002;-16
2022/04/24 14:00:06;;;;;;;1.73;1.60;;;;;;;;;;7332644;19;153550;-13
2022/04/24 14:02:40;;;;;;;2.75;1.90;;;;;;;;;;7329126;19;161991;-16
2022/04/24 14:05:12;;;;;;;3.63;1.75;;;;;;;;;;7329762;19;162520;-14
2022/04/24 14:07:46;;;;;;;1.83;1.40;;;;;;;;;;7330001;19;154168;-16
2022/04/24 14:10:18;;;;;;;2.03;1.75;;;;;;;;;;7330912;19;153709;-16
2022/04/24 14:12:50;;;;;;;3.42;1.60;;;;;;;;;;7335742;19;161824;-18
2022/04/24 14:15:25;;;;;;;2.72;1.80;;;;;;;;;;7336097;19;162355;-13
2022/04/24 14:17:58;;;;;;;2.15;1.95;;;;;;;;;;7337545;19;154092;-15
2022/04/24 14:20:30;;;;;;;1.70;1.60;;;;;;;;;;7337821;19;153522;-17
2022/04/24 14:23:20;;;;;;;1.80;1.70;;;;;;;;;;7337846;19;161821;-17
2022/04/24 14:25:52;;;;;;;2.05;1.67;;;;;;;;;;7337723;19;162470;-14
2022/04/24 14:28:24;;;;;;;2.83;2.15;;;;;;;;;;7337950;19;154075;-14
2022/04/24 14:30:56;;;;;;;1.52;1.40;;;;;;;;;;7337056;19;153670;-14
2022/04/24 14:33:27;;;;;;;2.50;2.15;;;;;;;;;;7336291;19;162152;-12
2022/04/24 14:36:00;;;;;;;2.20;1.77;;;;;;;;;;7336533;19;162548;-17
2022/04/24 14:38:34;;;;;;;2.42;1.70;;;;;;;;;;7338939;19;154164;-14
2022/04/24 14:41:06;;;;;;;3.55;1.90;;;;;;;;;;7336236;19;153591;-18
2022/04/24 14:43:37;;;;;;;3.90;1.88;;;;;;;;;;7336981;19;161871;-17
2022/04/24 14:57:07;;;;;;;3.03;1.73;;;;;;;;;;7334278;19;162441;-16
2022/04/24 14:59:38;;;;;;;1.75;1.60;;;;;;;;;;7337100;19;154054;-15
2022/04/24 15:02:10;;;;;;;1.50;1.40;;;;;;;;;;7335297;19;153727;-15
2022/04/24 15:04:41;;;;;;;1.73;1.63;;;;;;;;;;7335644;19;161957;-13
2022/04/24 15:07:12;;;;;;;1.88;1.50;;;;;;;;;;7336257;19;162483;-16
2022/04/24 15:09:47;;;;;;;2.00;1.80;;;;;;;;;;7337328;19;154108;-15
2022/04/24 15:12:18;;;;;;;1.58;1.48;;;;;;;;;;7334913;19;153539;-14